sensor_id;sensor_type;location;lat;lon;timestamp;P1;durP1;ratioP1;P2;durP2;ratioP2
12976;SDS011;6553;48.412;9.514;2022-10-15T00:01:10;0.75;;;0.73;;
12976;SDS011;6553;48.412;9.514;2022-10-15T00:03:40;0.70;;;0.70;;
12976;SDS011;6553;48.412;9.514;2022-10-15T00:06:09;0.70;;;0.70;;
12976;SDS011;6553;48.412;9.514;2022-10-15T00:08:42;1.10;;;1.05;;
12976;SDS011;6553;48.412;9.514;2022-10-15T00:11:13;1.98;;;0.88;;
12976;SDS011;6553;48.412;9.514;2022-10-15T00:13:46;0.77;;;0.77;;
12976;SDS011;6553;48.412;9.514;2022-10-15T00:16:16;1.55;;;0.70;;
12976;SDS011;6553;48.412;9.514;2022-10-15T00:18:46;0.80;;;0.80;;
12976;SDS011;6553;48.412;9.514;2022-10-15T00:21:13;1.00;;;0.80;;
12976;SDS011;6553;48.412;9.514;2022-10-15T00:23:42;1.10;;;0.93;;
12976;SDS011;6553;48.412;9.514;2022-10-15T00:26:18;0.70;;;0.70;;
12976;SDS011;6553;48.412;9.514;2022-10-15T00:28:48;1.27;;;0.80;;
12976;SDS011;6553;48.412;9.514;2022-10-15T00:31:19;0.73;;;0.73;;
12976;SDS011;6553;48.412;9.514;2022-10-15T00:33:49;0.80;;;0.80;;
12976;SDS011;6553;48.412;9.514;2022-10-15T00:36:17;0.70;;;0.60;;
12976;SDS011;6553;48.412;9.514;2022-10-15T00:38:49;0.90;;;0.90;;
12976;SDS011;6553;48.412;9.514;2022-10-15T00:41:21;0.95;;;0.65;;
12976;SDS011;6553;48.412;9.514;2022-10-15T00:43:54;1.25;;;0.70;;
12976;SDS011;6553;48.412;9.514;2022-10-15T00:47:01;0.80;;;0.70;;
12976;SDS011;6553;48.412;9.514;2022-10-15T00:49:50;0.60;;;0.60;;
12976;SDS011;6553;48.412;9.514;2022-10-15T00:55:30;0.70;;;0.70;;
12976;SDS011;6553;48.412;9.514;2022-10-15T00:58:03;0.98;;;0.60;;
12976;SDS011;6553;48.412;9.514;2022-10-15T01:00:33;0.90;;;0.70;;
12976;SDS011;6553;48.412;9.514;2022-10-15T01:02:59;1.40;;;0.73;;
12976;SDS011;6553;48.412;9.514;2022-10-15T01:05:25;0.43;;;0.43;;
12976;SDS011;6553;48.412;9.514;2022-10-15T01:07:51;1.05;;;0.75;;
12976;SDS011;6553;48.412;9.514;2022-10-15T01:10:17;0.63;;;0.60;;
12976;SDS011;6553;48.412;9.514;2022-10-15T01:15:59;1.25;;;1.05;;
12976;SDS011;6553;48.412;9.514;2022-10-15T01:19:06;0.55;;;0.52;;
12976;SDS011;6553;48.412;9.514;2022-10-15T01:22:15;0.50;;;0.50;;
12976;SDS011;6553;48.412;9.514;2022-10-15T01:27:51;0.50;;;0.50;;
12976;SDS011;6553;48.412;9.514;2022-10-15T01:30:23;1.02;;;0.80;;
12976;SDS011;6553;48.412;9.514;2022-10-15T01:35:50;0.77;;;0.70;;
12976;SDS011;6553;48.412;9.514;2022-10-15T01:38:24;0.50;;;0.50;;
12976;SDS011;6553;48.412;9.514;2022-10-15T01:41:07;0.70;;;0.60;;
12976;SDS011;6553;48.412;9.514;2022-10-15T01:47:07;0.73;;;0.50;;
12976;SDS011;6553;48.412;9.514;2022-10-15T01:49:41;0.85;;;0.52;;
12976;SDS011;6553;48.412;9.514;2022-10-15T01:52:15;0.55;;;0.52;;
12976;SDS011;6553;48.412;9.514;2022-10-15T01:54:47;0.52;;;0.50;;
12976;SDS011;6553;48.412;9.514;2022-10-15T01:57:16;0.50;;;0.50;;
12976;SDS011;6553;48.412;9.514;2022-10-15T01:59:44;0.50;;;0.50;;
12976;SDS011;6553;48.412;9.514;2022-10-15T02:02:10;1.20;;;0.60;;
12976;SDS011;6553;48.412;9.514;2022-10-15T02:04:38;0.77;;;0.60;;
12976;SDS011;6553;48.412;9.514;2022-10-15T02:07:06;0.55;;;0.55;;
12976;SDS011;6553;48.412;9.514;2022-10-15T02:18:09;0.95;;;0.63;;
12976;SDS011;6553;48.412;9.514;2022-10-15T02:21:02;0.60;;;0.50;;
12976;SDS011;6553;48.412;9.514;2022-10-15T02:26:34;0.60;;;0.60;;
12976;SDS011;6553;48.412;9.514;2022-10-15T02:29:01;0.55;;;0.55;;
12976;SDS011;6553;48.412;9.514;2022-10-15T02:31:34;0.77;;;0.40;;
12976;SDS011;6553;48.412;9.514;2022-10-15T02:34:05;0.77;;;0.50;;
12976;SDS011;6553;48.412;9.514;2022-10-15T02:36:37;0.50;;;0.50;;
12976;SDS011;6553;48.412;9.514;2022-10-15T02:39:05;0.43;;;0.43;;
12976;SDS011;6553;48.412;9.514;2022-10-15T02:41:38;0.43;;;0.40;;
12976;SDS011;6553;48.412;9.514;2022-10-15T02:44:07;0.40;;;0.40;;
12976;SDS011;6553;48.412;9.514;2022-10-15T02:49:04;0.50;;;0.50;;
12976;SDS011;6553;48.412;9.514;2022-10-15T02:51:30;0.57;;;0.50;;
12976;SDS011;6553;48.412;9.514;2022-10-15T02:53:58;0.40;;;0.40;;
12976;SDS011;6553;48.412;9.514;2022-10-15T02:56:25;0.75;;;0.40;;
12976;SDS011;6553;48.412;9.514;2022-10-15T02:58:51;0.55;;;0.50;;
12976;SDS011;6553;48.412;9.514;2022-10-15T03:01:18;0.40;;;0.40;;
12976;SDS011;6553;48.412;9.514;2022-10-15T03:03:44;0.40;;;0.40;;
12976;SDS011;6553;48.412;9.514;2022-10-15T03:06:10;1.58;;;0.70;;
12976;SDS011;6553;48.412;9.514;2022-10-15T03:08:36;0.50;;;0.50;;
12976;SDS011;6553;48.412;9.514;2022-10-15T03:11:03;0.60;;;0.50;;
12976;SDS011;6553;48.412;9.514;2022-10-15T03:13:29;0.30;;;0.30;;
12976;SDS011;6553;48.412;9.514;2022-10-15T03:15:55;0.82;;;0.68;;
12976;SDS011;6553;48.412;9.514;2022-10-15T03:18:22;0.57;;;0.57;;
12976;SDS011;6553;48.412;9.514;2022-10-15T03:20:54;0.63;;;0.40;;
12976;SDS011;6553;48.412;9.514;2022-10-15T03:23:20;1.10;;;0.68;;
12976;SDS011;6553;48.412;9.514;2022-10-15T03:25:49;0.40;;;0.40;;
12976;SDS011;6553;48.412;9.514;2022-10-15T03:28:20;0.50;;;0.40;;
12976;SDS011;6553;48.412;9.514;2022-10-15T03:30:47;0.30;;;0.30;;
12976;SDS011;6553;48.412;9.514;2022-10-15T03:33:13;0.40;;;0.40;;
12976;SDS011;6553;48.412;9.514;2022-10-15T03:35:40;0.50;;;0.50;;
12976;SDS011;6553;48.412;9.514;2022-10-15T03:38:07;0.80;;;0.43;;
12976;SDS011;6553;48.412;9.514;2022-10-15T03:40:33;0.60;;;0.60;;
12976;SDS011;6553;48.412;9.514;2022-10-15T03:43:13;0.50;;;0.50;;
12976;SDS011;6553;48.412;9.514;2022-10-15T03:45:39;0.32;;;0.32;;
12976;SDS011;6553;48.412;9.514;2022-10-15T03:48:15;0.40;;;0.40;;
12976;SDS011;6553;48.412;9.514;2022-10-15T03:50:41;0.88;;;0.50;;
12976;SDS011;6553;48.412;9.514;2022-10-15T03:53:07;1.00;;;0.60;;
12976;SDS011;6553;48.412;9.514;2022-10-15T03:55:33;0.40;;;0.40;;
12976;SDS011;6553;48.412;9.514;2022-10-15T03:57:59;0.63;;;0.40;;
12976;SDS011;6553;48.412;9.514;2022-10-15T04:00:25;0.40;;;0.40;;
12976;SDS011;6553;48.412;9.514;2022-10-15T04:02:56;0.50;;;0.50;;
12976;SDS011;6553;48.412;9.514;2022-10-15T04:05:24;0.55;;;0.43;;
12976;SDS011;6553;48.412;9.514;2022-10-15T04:07:55;0.50;;;0.50;;
12976;SDS011;6553;48.412;9.514;2022-10-15T04:10:22;0.43;;;0.43;;
12976;SDS011;6553;48.412;9.514;2022-10-15T04:12:49;1.23;;;0.60;;
12976;SDS011;6553;48.412;9.514;2022-10-15T04:15:16;0.47;;;0.40;;
12976;SDS011;6553;48.412;9.514;2022-10-15T04:17:52;0.40;;;0.40;;
12976;SDS011;6553;48.412;9.514;2022-10-15T04:20:20;0.45;;;0.40;;
12976;SDS011;6553;48.412;9.514;2022-10-15T04:22:46;0.50;;;0.50;;
12976;SDS011;6553;48.412;9.514;2022-10-15T04:25:13;0.43;;;0.43;;
12976;SDS011;6553;48.412;9.514;2022-10-15T04:27:39;0.40;;;0.40;;
12976;SDS011;6553;48.412;9.514;2022-10-15T04:30:08;0.68;;;0.50;;
12976;SDS011;6553;48.412;9.514;2022-10-15T04:32:39;0.73;;;0.70;;
12976;SDS011;6553;48.412;9.514;2022-10-15T04:35:06;0.50;;;0.50;;
12976;SDS011;6553;48.412;9.514;2022-10-15T04:37:50;0.80;;;0.40;;
12976;SDS011;6553;48.412;9.514;2022-10-15T04:40:16;0.47;;;0.40;;
12976;SDS011;6553;48.412;9.514;2022-10-15T04:42:43;0.40;;;0.40;;
12976;SDS011;6553;48.412;9.514;2022-10-15T04:45:11;0.40;;;0.40;;
12976;SDS011;6553;48.412;9.514;2022-10-15T04:47:37;0.40;;;0.40;;
12976;SDS011;6553;48.412;9.514;2022-10-15T04:50:07;0.40;;;0.40;;
12976;SDS011;6553;48.412;9.514;2022-10-15T04:52:52;0.50;;;0.50;;
12976;SDS011;6553;48.412;9.514;2022-10-15T04:55:18;0.65;;;0.32;;
12976;SDS011;6553;48.412;9.514;2022-10-15T04:57:44;0.52;;;0.40;;
12976;SDS011;6553;48.412;9.514;2022-10-15T05:00:10;0.40;;;0.40;;
12976;SDS011;6553;48.412;9.514;2022-10-15T05:02:55;0.50;;;0.50;;
12976;SDS011;6553;48.412;9.514;2022-10-15T05:05:31;0.30;;;0.30;;
12976;SDS011;6553;48.412;9.514;2022-10-15T05:08:01;0.47;;;0.30;;
12976;SDS011;6553;48.412;9.514;2022-10-15T05:10:31;0.60;;;0.43;;
12976;SDS011;6553;48.412;9.514;2022-10-15T05:13:02;0.40;;;0.40;;
12976;SDS011;6553;48.412;9.514;2022-10-15T05:15:31;1.08;;;0.40;;
12976;SDS011;6553;48.412;9.514;2022-10-15T05:17:57;0.40;;;0.40;;
12976;SDS011;6553;48.412;9.514;2022-10-15T05:20:29;0.40;;;0.40;;
12976;SDS011;6553;48.412;9.514;2022-10-15T05:22:56;0.43;;;0.40;;
12976;SDS011;6553;48.412;9.514;2022-10-15T05:25:26;0.50;;;0.50;;
12976;SDS011;6553;48.412;9.514;2022-10-15T05:27:54;0.35;;;0.35;;
12976;SDS011;6553;48.412;9.514;2022-10-15T05:30:19;0.40;;;0.40;;
12976;SDS011;6553;48.412;9.514;2022-10-15T05:32:53;0.60;;;0.40;;
12976;SDS011;6553;48.412;9.514;2022-10-15T05:35:20;0.38;;;0.38;;
12976;SDS011;6553;48.412;9.514;2022-10-15T05:37:53;1.02;;;0.52;;
12976;SDS011;6553;48.412;9.514;2022-10-15T05:40:19;0.43;;;0.40;;
12976;SDS011;6553;48.412;9.514;2022-10-15T05:42:52;0.43;;;0.43;;
12976;SDS011;6553;48.412;9.514;2022-10-15T05:45:18;0.57;;;0.40;;
12976;SDS011;6553;48.412;9.514;2022-10-15T05:47:43;0.40;;;0.40;;
12976;SDS011;6553;48.412;9.514;2022-10-15T05:50:13;0.40;;;0.40;;
12976;SDS011;6553;48.412;9.514;2022-10-15T05:52:43;0.40;;;0.40;;
12976;SDS011;6553;48.412;9.514;2022-10-15T05:55:24;0.38;;;0.38;;
12976;SDS011;6553;48.412;9.514;2022-10-15T05:57:50;0.30;;;0.30;;
12976;SDS011;6553;48.412;9.514;2022-10-15T06:00:15;0.40;;;0.40;;
12976;SDS011;6553;48.412;9.514;2022-10-15T06:02:50;0.40;;;0.40;;
12976;SDS011;6553;48.412;9.514;2022-10-15T06:05:16;0.47;;;0.40;;
12976;SDS011;6553;48.412;9.514;2022-10-15T06:07:42;0.38;;;0.30;;
12976;SDS011;6553;48.412;9.514;2022-10-15T06:10:07;0.45;;;0.45;;
12976;SDS011;6553;48.412;9.514;2022-10-15T06:12:33;0.40;;;0.40;;
12976;SDS011;6553;48.412;9.514;2022-10-15T06:14:59;0.30;;;0.30;;
12976;SDS011;6553;48.412;9.514;2022-10-15T06:17:25;0.40;;;0.40;;
12976;SDS011;6553;48.412;9.514;2022-10-15T06:19:50;0.38;;;0.22;;
12976;SDS011;6553;48.412;9.514;2022-10-15T06:22:16;0.30;;;0.30;;
12976;SDS011;6553;48.412;9.514;2022-10-15T06:24:42;1.13;;;0.50;;
12976;SDS011;6553;48.412;9.514;2022-10-15T06:27:08;0.50;;;0.50;;
12976;SDS011;6553;48.412;9.514;2022-10-15T06:29:35;0.30;;;0.30;;
12976;SDS011;6553;48.412;9.514;2022-10-15T06:32:01;0.40;;;0.40;;
12976;SDS011;6553;48.412;9.514;2022-10-15T06:34:27;0.50;;;0.40;;
12976;SDS011;6553;48.412;9.514;2022-10-15T06:36:52;0.60;;;0.40;;
12976;SDS011;6553;48.412;9.514;2022-10-15T06:39:18;0.40;;;0.40;;
12976;SDS011;6553;48.412;9.514;2022-10-15T06:41:44;0.40;;;0.40;;
12976;SDS011;6553;48.412;9.514;2022-10-15T06:44:10;0.50;;;0.50;;
12976;SDS011;6553;48.412;9.514;2022-10-15T06:46:35;0.50;;;0.50;;
12976;SDS011;6553;48.412;9.514;2022-10-15T06:49:01;1.05;;;0.50;;
12976;SDS011;6553;48.412;9.514;2022-10-15T06:51:28;0.40;;;0.40;;
12976;SDS011;6553;48.412;9.514;2022-10-15T06:53:54;0.30;;;0.30;;
12976;SDS011;6553;48.412;9.514;2022-10-15T06:56:20;0.30;;;0.30;;
12976;SDS011;6553;48.412;9.514;2022-10-15T06:58:45;0.40;;;0.30;;
12976;SDS011;6553;48.412;9.514;2022-10-15T07:01:11;0.35;;;0.32;;
12976;SDS011;6553;48.412;9.514;2022-10-15T07:03:37;0.40;;;0.40;;
12976;SDS011;6553;48.412;9.514;2022-10-15T07:06:05;0.30;;;0.30;;
12976;SDS011;6553;48.412;9.514;2022-10-15T07:08:33;0.65;;;0.50;;
12976;SDS011;6553;48.412;9.514;2022-10-15T07:11:00;0.80;;;0.30;;
12976;SDS011;6553;48.412;9.514;2022-10-15T07:13:30;0.40;;;0.40;;
12976;SDS011;6553;48.412;9.514;2022-10-15T07:16:02;0.57;;;0.30;;
12976;SDS011;6553;48.412;9.514;2022-10-15T07:18:32;0.40;;;0.40;;
12976;SDS011;6553;48.412;9.514;2022-10-15T07:20:59;0.40;;;0.40;;
12976;SDS011;6553;48.412;9.514;2022-10-15T07:23:25;0.95;;;0.40;;
12976;SDS011;6553;48.412;9.514;2022-10-15T07:25:51;0.30;;;0.30;;
12976;SDS011;6553;48.412;9.514;2022-10-15T07:28:16;0.50;;;0.50;;
12976;SDS011;6553;48.412;9.514;2022-10-15T07:30:42;0.50;;;0.50;;
12976;SDS011;6553;48.412;9.514;2022-10-15T07:33:08;0.60;;;0.40;;
12976;SDS011;6553;48.412;9.514;2022-10-15T07:35:35;0.40;;;0.30;;
12976;SDS011;6553;48.412;9.514;2022-10-15T07:38:02;0.40;;;0.40;;
12976;SDS011;6553;48.412;9.514;2022-10-15T07:40:28;0.40;;;0.40;;
12976;SDS011;6553;48.412;9.514;2022-10-15T07:42:55;1.23;;;0.88;;
12976;SDS011;6553;48.412;9.514;2022-10-15T07:45:24;0.47;;;0.47;;
12976;SDS011;6553;48.412;9.514;2022-10-15T07:47:51;1.05;;;0.40;;
12976;SDS011;6553;48.412;9.514;2022-10-15T07:50:18;0.30;;;0.30;;
12976;SDS011;6553;48.412;9.514;2022-10-15T07:52:45;0.75;;;0.40;;
12976;SDS011;6553;48.412;9.514;2022-10-15T07:55:11;0.55;;;0.43;;
12976;SDS011;6553;48.412;9.514;2022-10-15T07:57:37;0.38;;;0.38;;
12976;SDS011;6553;48.412;9.514;2022-10-15T08:00:04;0.30;;;0.30;;
12976;SDS011;6553;48.412;9.514;2022-10-15T08:02:37;0.50;;;0.40;;
12976;SDS011;6553;48.412;9.514;2022-10-15T08:05:04;0.30;;;0.30;;
12976;SDS011;6553;48.412;9.514;2022-10-15T08:07:31;0.57;;;0.47;;
12976;SDS011;6553;48.412;9.514;2022-10-15T08:09:56;0.40;;;0.40;;
12976;SDS011;6553;48.412;9.514;2022-10-15T08:12:25;0.50;;;0.50;;
12976;SDS011;6553;48.412;9.514;2022-10-15T08:14:51;0.40;;;0.40;;
12976;SDS011;6553;48.412;9.514;2022-10-15T08:17:18;0.35;;;0.30;;
12976;SDS011;6553;48.412;9.514;2022-10-15T08:19:44;0.40;;;0.40;;
12976;SDS011;6553;48.412;9.514;2022-10-15T08:22:09;0.40;;;0.40;;
12976;SDS011;6553;48.412;9.514;2022-10-15T08:24:36;0.40;;;0.40;;
12976;SDS011;6553;48.412;9.514;2022-10-15T08:27:02;0.30;;;0.30;;
12976;SDS011;6553;48.412;9.514;2022-10-15T08:29:28;0.43;;;0.40;;
12976;SDS011;6553;48.412;9.514;2022-10-15T08:31:54;0.30;;;0.30;;
12976;SDS011;6553;48.412;9.514;2022-10-15T08:34:21;0.47;;;0.47;;
12976;SDS011;6553;48.412;9.514;2022-10-15T08:36:48;0.40;;;0.40;;
12976;SDS011;6553;48.412;9.514;2022-10-15T08:39:14;0.60;;;0.55;;
12976;SDS011;6553;48.412;9.514;2022-10-15T08:47:12;0.40;;;0.40;;
12976;SDS011;6553;48.412;9.514;2022-10-15T08:50:11;0.40;;;0.40;;
12976;SDS011;6553;48.412;9.514;2022-10-15T08:52:56;0.40;;;0.40;;
12976;SDS011;6553;48.412;9.514;2022-10-15T08:55:23;0.30;;;0.30;;
12976;SDS011;6553;48.412;9.514;2022-10-15T09:00:42;0.40;;;0.40;;
12976;SDS011;6553;48.412;9.514;2022-10-15T09:06:08;0.40;;;0.40;;
12976;SDS011;6553;48.412;9.514;2022-10-15T09:12:06;0.38;;;0.38;;
12976;SDS011;6553;48.412;9.514;2022-10-15T09:15:02;0.40;;;0.40;;
12976;SDS011;6553;48.412;9.514;2022-10-15T09:17:37;0.50;;;0.50;;
12976;SDS011;6553;48.412;9.514;2022-10-15T09:20:05;0.35;;;0.32;;
12976;SDS011;6553;48.412;9.514;2022-10-15T09:22:41;0.50;;;0.40;;
12976;SDS011;6553;48.412;9.514;2022-10-15T09:25:14;3.10;;;0.50;;
12976;SDS011;6553;48.412;9.514;2022-10-15T09:27:44;0.40;;;0.40;;
12976;SDS011;6553;48.412;9.514;2022-10-15T09:33:08;0.40;;;0.40;;
12976;SDS011;6553;48.412;9.514;2022-10-15T09:44:27;0.73;;;0.50;;
12976;SDS011;6553;48.412;9.514;2022-10-15T09:47:01;0.45;;;0.45;;
12976;SDS011;6553;48.412;9.514;2022-10-15T09:49:48;0.50;;;0.50;;
12976;SDS011;6553;48.412;9.514;2022-10-15T09:55:11;0.50;;;0.50;;
12976;SDS011;6553;48.412;9.514;2022-10-15T09:57:51;0.50;;;0.50;;
12976;SDS011;6553;48.412;9.514;2022-10-15T10:00:21;2.90;;;0.60;;
12976;SDS011;6553;48.412;9.514;2022-10-15T10:03:03;0.73;;;0.55;;
12976;SDS011;6553;48.412;9.514;2022-10-15T10:05:37;0.60;;;0.60;;
12976;SDS011;6553;48.412;9.514;2022-10-15T10:10:42;0.77;;;0.50;;
12976;SDS011;6553;48.412;9.514;2022-10-15T10:13:21;1.20;;;0.50;;
12976;SDS011;6553;48.412;9.514;2022-10-15T10:16:03;0.95;;;0.60;;
12976;SDS011;6553;48.412;9.514;2022-10-15T10:18:41;1.10;;;0.50;;
12976;SDS011;6553;48.412;9.514;2022-10-15T10:24:24;1.08;;;0.55;;
12976;SDS011;6553;48.412;9.514;2022-10-15T10:26:56;1.13;;;0.50;;
12976;SDS011;6553;48.412;9.514;2022-10-15T10:29:23;1.02;;;0.65;;
12976;SDS011;6553;48.412;9.514;2022-10-15T10:31:51;1.70;;;0.60;;
12976;SDS011;6553;48.412;9.514;2022-10-15T10:34:30;1.45;;;1.35;;
12976;SDS011;6553;48.412;9.514;2022-10-15T10:36:57;1.88;;;0.85;;
12976;SDS011;6553;48.412;9.514;2022-10-15T10:39:29;1.98;;;0.60;;
12976;SDS011;6553;48.412;9.514;2022-10-15T10:42:02;1.75;;;0.80;;
12976;SDS011;6553;48.412;9.514;2022-10-15T10:44:32;2.17;;;0.50;;
12976;SDS011;6553;48.412;9.514;2022-10-15T10:47:17;1.20;;;0.80;;
12976;SDS011;6553;48.412;9.514;2022-10-15T10:49:56;2.08;;;0.70;;
12976;SDS011;6553;48.412;9.514;2022-10-15T10:52:33;0.82;;;0.52;;
12976;SDS011;6553;48.412;9.514;2022-10-15T11:00:26;1.30;;;0.50;;
12976;SDS011;6553;48.412;9.514;2022-10-15T11:03:14;0.98;;;0.60;;
12976;SDS011;6553;48.412;9.514;2022-10-15T11:09:13;0.95;;;0.60;;
12976;SDS011;6553;48.412;9.514;2022-10-15T11:24:19;2.25;;;0.70;;
12976;SDS011;6553;48.412;9.514;2022-10-15T11:27:11;0.85;;;0.55;;
12976;SDS011;6553;48.412;9.514;2022-10-15T11:32:59;1.08;;;0.50;;
12976;SDS011;6553;48.412;9.514;2022-10-15T11:35:50;0.60;;;0.52;;
12976;SDS011;6553;48.412;9.514;2022-10-15T11:38:41;1.67;;;0.50;;
12976;SDS011;6553;48.412;9.514;2022-10-15T11:50:03;1.17;;;0.60;;
12976;SDS011;6553;48.412;9.514;2022-10-15T11:53:04;1.23;;;0.60;;
12976;SDS011;6553;48.412;9.514;2022-10-15T11:58:46;1.83;;;0.82;;
12976;SDS011;6553;48.412;9.514;2022-10-15T12:04:09;1.67;;;0.73;;
12976;SDS011;6553;48.412;9.514;2022-10-15T12:07:05;0.43;;;0.43;;
12976;SDS011;6553;48.412;9.514;2022-10-15T12:09:55;0.50;;;0.50;;
12976;SDS011;6553;48.412;9.514;2022-10-15T12:12:53;0.93;;;0.70;;
12976;SDS011;6553;48.412;9.514;2022-10-15T12:15:38;1.15;;;0.75;;
12976;SDS011;6553;48.412;9.514;2022-10-15T12:18:23;0.60;;;0.57;;
12976;SDS011;6553;48.412;9.514;2022-10-15T12:21:00;1.27;;;0.57;;
12976;SDS011;6553;48.412;9.514;2022-10-15T12:26:23;1.65;;;0.50;;
12976;SDS011;6553;48.412;9.514;2022-10-15T12:28:49;2.63;;;0.52;;
12976;SDS011;6553;48.412;9.514;2022-10-15T12:31:18;1.65;;;0.70;;
12976;SDS011;6553;48.412;9.514;2022-10-15T12:33:50;0.98;;;0.65;;
12976;SDS011;6553;48.412;9.514;2022-10-15T12:41:40;1.77;;;0.68;;
12976;SDS011;6553;48.412;9.514;2022-10-15T12:44:24;1.65;;;0.50;;
12976;SDS011;6553;48.412;9.514;2022-10-15T12:46:54;0.50;;;0.50;;
12976;SDS011;6553;48.412;9.514;2022-10-15T12:51:59;2.25;;;0.57;;
12976;SDS011;6553;48.412;9.514;2022-10-15T12:54:40;1.77;;;0.70;;
12976;SDS011;6553;48.412;9.514;2022-10-15T13:00:46;0.93;;;0.70;;
12976;SDS011;6553;48.412;9.514;2022-10-15T13:02:47;1.38;;;0.82;;
12976;SDS011;6553;48.412;9.514;2022-10-15T13:05:25;3.17;;;1.00;;
12976;SDS011;6553;48.412;9.514;2022-10-15T13:07:57;3.45;;;0.82;;
12976;SDS011;6553;48.412;9.514;2022-10-15T13:10:33;0.60;;;0.60;;
12976;SDS011;6553;48.412;9.514;2022-10-15T13:13:05;0.70;;;0.60;;
12976;SDS011;6553;48.412;9.514;2022-10-15T13:15:40;0.65;;;0.60;;
12976;SDS011;6553;48.412;9.514;2022-10-15T13:18:14;2.50;;;0.70;;
12976;SDS011;6553;48.412;9.514;2022-10-15T13:20:44;3.30;;;0.93;;
12976;SDS011;6553;48.412;9.514;2022-10-15T13:23:25;2.33;;;0.93;;
12976;SDS011;6553;48.412;9.514;2022-10-15T13:26:14;1.45;;;0.88;;
12976;SDS011;6553;48.412;9.514;2022-10-15T13:28:41;2.10;;;0.60;;
12976;SDS011;6553;48.412;9.514;2022-10-15T13:31:50;1.02;;;0.80;;
12976;SDS011;6553;48.412;9.514;2022-10-15T13:34:10;1.27;;;0.60;;
12976;SDS011;6553;48.412;9.514;2022-10-15T13:36:47;1.15;;;0.50;;
12976;SDS011;6553;48.412;9.514;2022-10-15T13:39:26;0.95;;;0.88;;
12976;SDS011;6553;48.412;9.514;2022-10-15T13:42:07;0.88;;;0.70;;
12976;SDS011;6553;48.412;9.514;2022-10-15T13:44:34;2.15;;;0.70;;
12976;SDS011;6553;48.412;9.514;2022-10-15T13:47:00;0.68;;;0.52;;
12976;SDS011;6553;48.412;9.514;2022-10-15T13:49:27;1.55;;;0.70;;
12976;SDS011;6553;48.412;9.514;2022-10-15T13:51:52;1.55;;;0.70;;
12976;SDS011;6553;48.412;9.514;2022-10-15T13:54:22;4.00;;;0.73;;
12976;SDS011;6553;48.412;9.514;2022-10-15T13:56:54;1.38;;;0.68;;
12976;SDS011;6553;48.412;9.514;2022-10-15T13:59:24;1.70;;;0.85;;
12976;SDS011;6553;48.412;9.514;2022-10-15T14:01:53;1.02;;;0.60;;
12976;SDS011;6553;48.412;9.514;2022-10-15T14:04:28;1.20;;;0.70;;
12976;SDS011;6553;48.412;9.514;2022-10-15T14:06:59;0.88;;;0.65;;
12976;SDS011;6553;48.412;9.514;2022-10-15T14:09:45;1.92;;;0.80;;
12976;SDS011;6553;48.412;9.514;2022-10-15T14:12:12;1.48;;;0.73;;
12976;SDS011;6553;48.412;9.514;2022-10-15T14:14:42;0.88;;;0.50;;
12976;SDS011;6553;48.412;9.514;2022-10-15T14:17:21;1.20;;;0.82;;
12976;SDS011;6553;48.412;9.514;2022-10-15T14:19:53;1.95;;;0.82;;
12976;SDS011;6553;48.412;9.514;2022-10-15T14:22:24;0.70;;;0.70;;
12976;SDS011;6553;48.412;9.514;2022-10-15T14:24:52;1.65;;;0.68;;
12976;SDS011;6553;48.412;9.514;2022-10-15T14:27:21;0.65;;;0.60;;
12976;SDS011;6553;48.412;9.514;2022-10-15T14:29:52;1.20;;;0.80;;
12976;SDS011;6553;48.412;9.514;2022-10-15T14:34:58;0.65;;;0.65;;
12976;SDS011;6553;48.412;9.514;2022-10-15T14:42:34;1.15;;;0.80;;
12976;SDS011;6553;48.412;9.514;2022-10-15T14:47:58;0.85;;;0.70;;
12976;SDS011;6553;48.412;9.514;2022-10-15T14:50:32;2.00;;;0.70;;
12976;SDS011;6553;48.412;9.514;2022-10-15T14:53:06;1.83;;;0.77;;
12976;SDS011;6553;48.412;9.514;2022-10-15T14:55:41;0.95;;;0.60;;
12976;SDS011;6553;48.412;9.514;2022-10-15T14:58:21;2.15;;;0.77;;
12976;SDS011;6553;48.412;9.514;2022-10-15T15:00:56;1.45;;;0.80;;
12976;SDS011;6553;48.412;9.514;2022-10-15T15:03:26;1.73;;;0.85;;
12976;SDS011;6553;48.412;9.514;2022-10-15T15:05:56;1.23;;;0.70;;
12976;SDS011;6553;48.412;9.514;2022-10-15T15:08:22;0.88;;;0.60;;
12976;SDS011;6553;48.412;9.514;2022-10-15T15:10:50;1.42;;;0.90;;
12976;SDS011;6553;48.412;9.514;2022-10-15T15:13:21;1.00;;;0.70;;
12976;SDS011;6553;48.412;9.514;2022-10-15T15:15:50;1.20;;;0.70;;
12976;SDS011;6553;48.412;9.514;2022-10-15T15:18:16;1.27;;;0.82;;
12976;SDS011;6553;48.412;9.514;2022-10-15T15:20:43;1.38;;;0.50;;
12976;SDS011;6553;48.412;9.514;2022-10-15T15:23:18;0.77;;;0.77;;
12976;SDS011;6553;48.412;9.514;2022-10-15T15:25:48;1.23;;;0.80;;
12976;SDS011;6553;48.412;9.514;2022-10-15T15:28:16;1.17;;;0.73;;
12976;SDS011;6553;48.412;9.514;2022-10-15T15:30:45;0.60;;;0.60;;
12976;SDS011;6553;48.412;9.514;2022-10-15T15:33:18;1.15;;;0.77;;
12976;SDS011;6553;48.412;9.514;2022-10-15T15:35:51;1.25;;;0.70;;
12976;SDS011;6553;48.412;9.514;2022-10-15T15:38:24;1.10;;;1.00;;
12976;SDS011;6553;48.412;9.514;2022-10-15T15:41:02;0.90;;;0.90;;
12976;SDS011;6553;48.412;9.514;2022-10-15T15:43:42;1.63;;;0.90;;
12976;SDS011;6553;48.412;9.514;2022-10-15T15:46:09;1.95;;;0.90;;
12976;SDS011;6553;48.412;9.514;2022-10-15T15:48:35;1.00;;;0.80;;
12976;SDS011;6553;48.412;9.514;2022-10-15T15:51:02;1.90;;;0.70;;
12976;SDS011;6553;48.412;9.514;2022-10-15T15:53:51;0.90;;;0.80;;
12976;SDS011;6553;48.412;9.514;2022-10-15T15:56:18;1.88;;;1.02;;
12976;SDS011;6553;48.412;9.514;2022-10-15T15:58:44;2.40;;;0.82;;
12976;SDS011;6553;48.412;9.514;2022-10-15T16:01:10;1.13;;;0.70;;
12976;SDS011;6553;48.412;9.514;2022-10-15T16:03:37;1.55;;;0.80;;
12976;SDS011;6553;48.412;9.514;2022-10-15T16:06:03;1.20;;;0.98;;
12976;SDS011;6553;48.412;9.514;2022-10-15T16:08:31;0.77;;;0.65;;
12976;SDS011;6553;48.412;9.514;2022-10-15T16:11:01;0.70;;;0.70;;
12976;SDS011;6553;48.412;9.514;2022-10-15T16:13:29;1.17;;;0.90;;
12976;SDS011;6553;48.412;9.514;2022-10-15T16:15:55;2.38;;;0.90;;
12976;SDS011;6553;48.412;9.514;2022-10-15T16:18:20;4.07;;;0.80;;
12976;SDS011;6553;48.412;9.514;2022-10-15T16:20:46;1.45;;;1.00;;
12976;SDS011;6553;48.412;9.514;2022-10-15T16:23:13;1.00;;;0.80;;
12976;SDS011;6553;48.412;9.514;2022-10-15T16:25:39;1.83;;;0.70;;
12976;SDS011;6553;48.412;9.514;2022-10-15T16:28:05;0.98;;;0.82;;
12976;SDS011;6553;48.412;9.514;2022-10-15T16:30:31;1.70;;;0.70;;
12976;SDS011;6553;48.412;9.514;2022-10-15T16:32:56;1.10;;;0.85;;
12976;SDS011;6553;48.412;9.514;2022-10-15T16:35:22;0.80;;;0.80;;
12976;SDS011;6553;48.412;9.514;2022-10-15T16:37:48;1.02;;;0.73;;
12976;SDS011;6553;48.412;9.514;2022-10-15T16:40:16;1.38;;;0.80;;
12976;SDS011;6553;48.412;9.514;2022-10-15T16:42:43;0.80;;;0.80;;
12976;SDS011;6553;48.412;9.514;2022-10-15T16:45:09;0.85;;;0.70;;
12976;SDS011;6553;48.412;9.514;2022-10-15T16:47:35;0.98;;;0.80;;
12976;SDS011;6553;48.412;9.514;2022-10-15T16:50:00;2.38;;;0.75;;
12976;SDS011;6553;48.412;9.514;2022-10-15T16:52:26;0.75;;;0.73;;
12976;SDS011;6553;48.412;9.514;2022-10-15T16:54:52;2.25;;;0.70;;
12976;SDS011;6553;48.412;9.514;2022-10-15T16:57:18;0.70;;;0.70;;
12976;SDS011;6553;48.412;9.514;2022-10-15T16:59:43;0.68;;;0.60;;
12976;SDS011;6553;48.412;9.514;2022-10-15T17:02:10;0.88;;;0.88;;
12976;SDS011;6553;48.412;9.514;2022-10-15T17:04:36;0.60;;;0.60;;
12976;SDS011;6553;48.412;9.514;2022-10-15T17:07:01;0.93;;;0.80;;
12976;SDS011;6553;48.412;9.514;2022-10-15T17:09:27;2.05;;;0.65;;
12976;SDS011;6553;48.412;9.514;2022-10-15T17:11:53;0.98;;;0.70;;
12976;SDS011;6553;48.412;9.514;2022-10-15T17:14:19;1.35;;;0.70;;
12976;SDS011;6553;48.412;9.514;2022-10-15T17:16:48;1.10;;;0.90;;
12976;SDS011;6553;48.412;9.514;2022-10-15T17:19:17;1.13;;;0.90;;
12976;SDS011;6553;48.412;9.514;2022-10-15T17:21:49;0.90;;;0.65;;
12976;SDS011;6553;48.412;9.514;2022-10-15T17:24:17;2.13;;;0.73;;
12976;SDS011;6553;48.412;9.514;2022-10-15T17:26:44;1.55;;;0.80;;
12976;SDS011;6553;48.412;9.514;2022-10-15T17:29:12;2.17;;;0.93;;
12976;SDS011;6553;48.412;9.514;2022-10-15T17:31:44;2.08;;;0.90;;